Terminal Aerodrome Forecast
Issued by NWS

Home | Current Version | Previous Version | Text Only | Print | Product List | Glossary On
Versions: 1 2 3 4 5 6 7 8 9 10 11 12 13 14 15 16 17 18 19 20 21 22 23 24 25 26 27 28 29 30 31
000
FTUS43 KDMX 301300 AAA
TAFFOD
TAF AMD
KFOD 301345Z 3014/0112 12008KT P6SM OVC008
     FM301700 12014KT P6SM FEW010 SCT025 BKN100
     FM010000 14012KT P6SM VCSH BKN080
     FM010500 14013KT 5SM -SHRA VCTS BKN025CB OVC100=

USA.gov is the U.S. government's official web portal to all federal, state and local government web resources and services.